ANO361 YPPH-YBAS
Flight info
| Callsign | ANO361 |
|---|---|
| Flight time | 2h 28m |
| Altitude | 37000 |
| Route | AMANA Y31 LAKIR Y69 UPRUN W408 AS |
| Aircraft | E190/M-SDGHIRWYZ/EB1 |
Departure
| Time | 2026-05-06 00:11 |
|---|---|
| Airport | Perth International Airport (YPPH) |
Arrival
| Time | 2026-05-06 02:40 |
|---|---|
| Airport | Alice Springs Airport (YBAS) |
| Time | Latitude | Longitude | Altitude | Speed | Heading |
|---|---|---|---|---|---|
| 2026-05-05 23:34 | -31.93641 | 115.96051 | 67 ft | 0 kts | 329° |
| 2026-05-06 00:02 | -31.93651 | 115.96058 | 64 ft | 4 kts | 336° |
| 2026-05-06 00:02 | -31.93676 | 115.96065 | 65 ft | 4 kts | 7° |
| 2026-05-06 00:02 | -31.93700 | 115.96055 | 60 ft | 4 kts | 44° |
| 2026-05-06 00:02 | -31.93708 | 115.96045 | 58 ft | 0 kts | 60° |
| 2026-05-06 00:06 | -31.93707 | 115.96047 | 62 ft | 1 kts | 60° |
| 2026-05-06 00:06 | -31.93697 | 115.96067 | 58 ft | 5 kts | 60° |
| 2026-05-06 00:07 | -31.93678 | 115.96107 | 65 ft | 7 kts | 59° |
| 2026-05-06 00:07 | -31.93661 | 115.96162 | 64 ft | 7 kts | 98° |
| 2026-05-06 00:07 | -31.93701 | 115.96176 | 67 ft | 7 kts | 182° |
| 2026-05-06 00:07 | -31.93750 | 115.96152 | 67 ft | 9 kts | 215° |
| 2026-05-06 00:08 | -31.93791 | 115.96092 | 64 ft | 11 kts | 238° |
| 2026-05-06 00:08 | -31.93835 | 115.96008 | 62 ft | 13 kts | 239° |
| 2026-05-06 00:08 | -31.93896 | 115.95919 | 62 ft | 15 kts | 227° |
| 2026-05-06 00:08 | -31.93985 | 115.95862 | 63 ft | 16 kts | 167° |
| 2026-05-06 00:09 | -31.94074 | 115.95936 | 66 ft | 12 kts | 110° |
| 2026-05-06 00:09 | -31.94062 | 115.95991 | 66 ft | 0 kts | 59° |
| 2026-05-06 00:10 | -31.94050 | 115.96014 | 61 ft | 17 kts | 59° |
| 2026-05-06 00:10 | -31.93859 | 115.96383 | 66 ft | 88 kts | 59° |
| 2026-05-06 00:11 | -31.93433 | 115.97219 | 102 ft | 143 kts | 60° |
| 2026-05-06 00:11 | -31.92873 | 115.98226 | 681 ft | 156 kts | 57° |
| 2026-05-06 00:11 | -31.92270 | 115.99328 | 1439 ft | 164 kts | 59° |
| 2026-05-06 00:11 | -31.91670 | 116.00502 | 2090 ft | 173 kts | 60° |
| 2026-05-06 00:12 | -31.91035 | 116.01799 | 2489 ft | 200 kts | 59° |
| 2026-05-06 00:12 | -31.90317 | 116.03258 | 3104 ft | 212 kts | 59° |
| 2026-05-06 00:12 | -31.89532 | 116.04814 | 3734 ft | 231 kts | 59° |
| 2026-05-06 00:12 | -31.88685 | 116.06482 | 4348 ft | 250 kts | 59° |
| 2026-05-06 00:13 | -31.87772 | 116.08279 | 5203 ft | 260 kts | 59° |
| 2026-05-06 00:13 | -31.86827 | 116.10125 | 6086 ft | 267 kts | 60° |
| 2026-05-06 00:13 | -31.85868 | 116.12009 | 7057 ft | 270 kts | 65° |
| 2026-05-06 00:13 | -31.85214 | 116.14071 | 7935 ft | 269 kts | 80° |
| 2026-05-06 00:14 | -31.84958 | 116.15511 | 8539 ft | 272 kts | 80° |
| 2026-05-06 00:14 | -31.84554 | 116.17717 | 9454 ft | 277 kts | 80° |
| 2026-05-06 00:14 | -31.83985 | 116.20669 | 10674 ft | 282 kts | 79° |
| 2026-05-06 00:14 | -31.83538 | 116.22984 | 11123 ft | 303 kts | 79° |
| 2026-05-06 00:15 | -31.83225 | 116.24617 | 11499 ft | 312 kts | 79° |
| 2026-05-06 00:15 | -31.82733 | 116.27163 | 12081 ft | 327 kts | 79° |
| 2026-05-06 00:15 | -31.82217 | 116.29830 | 12665 ft | 340 kts | 79° |
| 2026-05-06 00:15 | -31.81679 | 116.32585 | 13429 ft | 348 kts | 79° |
| 2026-05-06 00:16 | -31.81131 | 116.35393 | 14244 ft | 355 kts | 79° |
| 2026-05-06 00:16 | -31.80572 | 116.38247 | 15068 ft | 361 kts | 79° |
| 2026-05-06 00:16 | -31.80012 | 116.41111 | 15942 ft | 365 kts | 79° |
| 2026-05-06 00:16 | -31.79439 | 116.44040 | 16813 ft | 369 kts | 79° |
| 2026-05-06 00:17 | -31.78861 | 116.47000 | 17597 ft | 374 kts | 79° |
| 2026-05-06 00:17 | -31.78273 | 116.50010 | 18333 ft | 379 kts | 79° |
| 2026-05-06 00:17 | -31.77679 | 116.53054 | 19015 ft | 385 kts | 79° |
| 2026-05-06 00:17 | -31.77075 | 116.56147 | 19678 ft | 389 kts | 79° |
| 2026-05-06 00:18 | -31.76474 | 116.59226 | 20338 ft | 394 kts | 79° |
| 2026-05-06 00:18 | -31.75758 | 116.62353 | 20987 ft | 400 kts | 70° |
| 2026-05-06 00:18 | -31.74265 | 116.65139 | 21627 ft | 406 kts | 50° |
| 2026-05-06 00:18 | -31.72299 | 116.67554 | 22255 ft | 410 kts | 46° |
| 2026-05-06 00:19 | -31.70291 | 116.69975 | 22822 ft | 414 kts | 46° |
| 2026-05-06 00:19 | -31.68300 | 116.72390 | 23361 ft | 418 kts | 46° |
| 2026-05-06 00:19 | -31.66263 | 116.74865 | 23919 ft | 422 kts | 46° |
| 2026-05-06 00:19 | -31.64215 | 116.77352 | 24409 ft | 425 kts | 46° |
| 2026-05-06 00:20 | -31.62146 | 116.79862 | 24899 ft | 428 kts | 46° |
| 2026-05-06 00:20 | -31.60063 | 116.82383 | 25398 ft | 430 kts | 46° |
| 2026-05-06 00:20 | -31.57996 | 116.84881 | 25884 ft | 433 kts | 46° |
| 2026-05-06 00:20 | -31.55915 | 116.87465 | 26342 ft | 436 kts | 51° |
| 2026-05-06 00:21 | -31.54284 | 116.90465 | 26762 ft | 438 kts | 63° |
| 2026-05-06 00:21 | -31.52910 | 116.93666 | 27202 ft | 440 kts | 64° |
| 2026-05-06 00:21 | -31.51516 | 116.96875 | 27619 ft | 443 kts | 64° |
| 2026-05-06 00:21 | -31.50108 | 117.00105 | 28035 ft | 446 kts | 64° |
| 2026-05-06 00:22 | -31.48706 | 117.03312 | 28422 ft | 448 kts | 64° |
| 2026-05-06 00:22 | -31.47272 | 117.06583 | 28801 ft | 451 kts | 64° |
| 2026-05-06 00:22 | -31.45830 | 117.09866 | 29184 ft | 453 kts | 64° |
| 2026-05-06 00:22 | -31.44382 | 117.13156 | 29541 ft | 455 kts | 64° |
| 2026-05-06 00:23 | -31.42947 | 117.16414 | 29983 ft | 455 kts | 64° |
| 2026-05-06 00:23 | -31.41496 | 117.19702 | 30499 ft | 453 kts | 63° |
| 2026-05-06 00:23 | -31.40046 | 117.22987 | 30849 ft | 453 kts | 63° |
| 2026-05-06 00:23 | -31.38597 | 117.26266 | 31214 ft | 453 kts | 63° |
| 2026-05-06 00:24 | -31.37149 | 117.29542 | 31556 ft | 453 kts | 63° |
| 2026-05-06 00:24 | -31.34240 | 117.36123 | 31500 ft | 454 kts | 63° |
| 2026-05-06 00:25 | -31.31355 | 117.42635 | 31493 ft | 453 kts | 63° |
| 2026-05-06 00:25 | -31.28449 | 117.49184 | 31485 ft | 453 kts | 63° |
| 2026-05-06 00:26 | -31.25177 | 117.55490 | 31487 ft | 454 kts | 53° |
| 2026-05-06 00:26 | -31.21345 | 117.61382 | 31501 ft | 454 kts | 53° |
| 2026-05-06 00:27 | -31.17550 | 117.67232 | 31496 ft | 454 kts | 53° |
| 2026-05-06 00:27 | -31.13728 | 117.73121 | 31465 ft | 454 kts | 53° |
| 2026-05-06 00:28 | -31.09901 | 117.79013 | 31464 ft | 454 kts | 53° |
| 2026-05-06 00:28 | -31.06107 | 117.84847 | 31464 ft | 454 kts | 53° |
| 2026-05-06 00:29 | -31.02277 | 117.90728 | 31465 ft | 454 kts | 53° |
| 2026-05-06 00:29 | -30.98449 | 117.96599 | 31459 ft | 455 kts | 53° |
| 2026-05-06 00:30 | -30.94613 | 118.02472 | 31465 ft | 456 kts | 53° |
| 2026-05-06 00:30 | -30.90787 | 118.08322 | 31459 ft | 457 kts | 53° |
| 2026-05-06 00:31 | -30.86923 | 118.14221 | 31464 ft | 457 kts | 53° |
| 2026-05-06 00:31 | -30.83063 | 118.20105 | 31462 ft | 457 kts | 53° |
| 2026-05-06 00:32 | -30.79209 | 118.25972 | 31464 ft | 457 kts | 53° |
| 2026-05-06 00:32 | -30.75362 | 118.31819 | 31464 ft | 457 kts | 53° |
| 2026-05-06 00:33 | -30.71493 | 118.37692 | 31462 ft | 457 kts | 52° |
| 2026-05-06 00:33 | -30.67614 | 118.43572 | 31462 ft | 458 kts | 52° |
| 2026-05-06 00:34 | -30.63743 | 118.49429 | 31461 ft | 458 kts | 52° |
| 2026-05-06 00:34 | -30.59849 | 118.55316 | 31458 ft | 458 kts | 52° |
| 2026-05-06 00:35 | -30.55976 | 118.61164 | 31465 ft | 460 kts | 52° |
| 2026-05-06 00:35 | -30.52067 | 118.67053 | 31462 ft | 460 kts | 52° |
| 2026-05-06 00:35 | -30.50113 | 118.69993 | 31577 ft | 458 kts | 52° |
| 2026-05-06 00:36 | -30.48193 | 118.72885 | 32329 ft | 449 kts | 52° |
| 2026-05-06 00:36 | -30.46311 | 118.75706 | 32784 ft | 446 kts | 52° |
| 2026-05-06 00:36 | -30.44445 | 118.78497 | 33549 ft | 433 kts | 52° |
| 2026-05-06 00:36 | -30.42613 | 118.81243 | 34115 ft | 428 kts | 52° |
| 2026-05-06 00:37 | -30.40790 | 118.83974 | 34467 ft | 427 kts | 52° |
| 2026-05-06 00:37 | -30.38971 | 118.86701 | 34717 ft | 427 kts | 52° |
| 2026-05-06 00:37 | -30.37140 | 118.89442 | 34847 ft | 431 kts | 52° |
| 2026-05-06 00:37 | -30.35317 | 118.92172 | 35006 ft | 433 kts | 52° |
| 2026-05-06 00:38 | -30.33464 | 118.94946 | 35155 ft | 436 kts | 52° |
| 2026-05-06 00:38 | -30.31595 | 118.97738 | 35323 ft | 439 kts | 52° |
| 2026-05-06 00:38 | -30.29747 | 119.00500 | 35564 ft | 433 kts | 52° |
| 2026-05-06 00:39 | -30.26022 | 119.06058 | 35553 ft | 443 kts | 52° |
| 2026-05-06 00:39 | -30.22223 | 119.11731 | 35548 ft | 447 kts | 52° |
| 2026-05-06 00:40 | -30.18395 | 119.17427 | 35443 ft | 447 kts | 51° |
| 2026-05-06 00:40 | -30.14581 | 119.23094 | 35445 ft | 448 kts | 51° |
| 2026-05-06 00:41 | -30.10765 | 119.28760 | 35456 ft | 448 kts | 51° |
| 2026-05-06 00:41 | -30.06949 | 119.34477 | 35452 ft | 448 kts | 54° |
| 2026-05-06 00:42 | -30.03477 | 119.40417 | 35448 ft | 448 kts | 56° |
| 2026-05-06 00:42 | -29.99968 | 119.46390 | 35451 ft | 449 kts | 55° |
| 2026-05-06 00:43 | -29.96449 | 119.52354 | 35455 ft | 449 kts | 55° |
| 2026-05-06 00:43 | -29.92950 | 119.58266 | 35456 ft | 449 kts | 55° |
| 2026-05-06 00:44 | -29.89418 | 119.64225 | 35448 ft | 449 kts | 55° |
| 2026-05-06 00:44 | -29.85889 | 119.70166 | 35451 ft | 449 kts | 55° |
| 2026-05-06 00:45 | -29.82380 | 119.76065 | 35452 ft | 449 kts | 55° |
| 2026-05-06 00:45 | -29.78844 | 119.82000 | 35457 ft | 449 kts | 55° |
| 2026-05-06 00:46 | -29.75307 | 119.87928 | 35450 ft | 449 kts | 55° |
| 2026-05-06 00:46 | -29.71757 | 119.93868 | 35452 ft | 449 kts | 55° |
| 2026-05-06 00:47 | -29.68229 | 119.99764 | 35453 ft | 449 kts | 54° |
| 2026-05-06 00:47 | -29.64677 | 120.05692 | 35451 ft | 449 kts | 54° |
| 2026-05-06 00:48 | -29.61144 | 120.11580 | 35454 ft | 449 kts | 54° |
| 2026-05-06 00:48 | -29.57584 | 120.17503 | 35450 ft | 450 kts | 54° |
| 2026-05-06 00:49 | -29.54014 | 120.23436 | 35446 ft | 450 kts | 54° |
| 2026-05-06 00:49 | -29.50462 | 120.29328 | 35448 ft | 450 kts | 54° |
| 2026-05-06 00:50 | -29.46893 | 120.35245 | 35447 ft | 450 kts | 54° |
| 2026-05-06 00:50 | -29.43318 | 120.41161 | 35448 ft | 451 kts | 54° |
| 2026-05-06 00:51 | -29.39753 | 120.47052 | 35450 ft | 451 kts | 54° |
| 2026-05-06 00:51 | -29.36167 | 120.52970 | 35450 ft | 450 kts | 54° |
| 2026-05-06 00:52 | -29.32600 | 120.58851 | 35442 ft | 451 kts | 54° |
| 2026-05-06 00:52 | -29.29024 | 120.64729 | 35443 ft | 451 kts | 54° |
| 2026-05-06 00:53 | -29.25429 | 120.70637 | 35441 ft | 451 kts | 54° |
| 2026-05-06 00:53 | -29.21853 | 120.76509 | 35445 ft | 450 kts | 54° |
| 2026-05-06 00:54 | -29.18262 | 120.82393 | 35441 ft | 451 kts | 54° |
| 2026-05-06 00:54 | -29.14661 | 120.88278 | 35438 ft | 451 kts | 54° |
| 2026-05-06 00:55 | -29.11066 | 120.94158 | 35439 ft | 451 kts | 54° |
| 2026-05-06 00:55 | -29.07487 | 121.00008 | 35442 ft | 451 kts | 54° |
| 2026-05-06 00:56 | -29.03870 | 121.05894 | 35440 ft | 451 kts | 54° |
| 2026-05-06 00:56 | -29.00265 | 121.11776 | 35434 ft | 451 kts | 54° |
| 2026-05-06 00:57 | -28.96665 | 121.17617 | 35435 ft | 451 kts | 54° |
| 2026-05-06 00:57 | -28.93051 | 121.23495 | 35442 ft | 451 kts | 54° |
| 2026-05-06 00:58 | -28.89450 | 121.29336 | 35436 ft | 452 kts | 53° |
| 2026-05-06 00:58 | -28.86391 | 121.35602 | 35455 ft | 453 kts | 67° |
| 2026-05-06 00:59 | -28.83985 | 121.42237 | 35426 ft | 453 kts | 67° |
| 2026-05-06 00:59 | -28.81552 | 121.48889 | 35427 ft | 453 kts | 67° |
| 2026-05-06 01:00 | -28.79129 | 121.55492 | 35427 ft | 454 kts | 67° |
| 2026-05-06 01:00 | -28.76683 | 121.62142 | 35428 ft | 454 kts | 67° |
| 2026-05-06 01:01 | -28.74231 | 121.68791 | 35425 ft | 454 kts | 67° |
| 2026-05-06 01:01 | -28.71795 | 121.75386 | 35429 ft | 454 kts | 67° |
| 2026-05-06 01:02 | -28.69340 | 121.82018 | 35425 ft | 455 kts | 66° |
| 2026-05-06 01:02 | -28.67292 | 121.87543 | 35428 ft | 455 kts | 66° |
| 2026-05-06 01:03 | -28.64827 | 121.94180 | 35429 ft | 455 kts | 66° |
| 2026-05-06 01:03 | -28.62355 | 122.00826 | 35428 ft | 455 kts | 66° |
| 2026-05-06 01:04 | -28.59892 | 122.07436 | 35427 ft | 455 kts | 66° |
| 2026-05-06 01:04 | -28.57427 | 122.14039 | 35424 ft | 455 kts | 66° |
| 2026-05-06 01:05 | -28.54941 | 122.20687 | 35426 ft | 455 kts | 66° |
| 2026-05-06 01:05 | -28.52452 | 122.27333 | 35427 ft | 455 kts | 66° |
| 2026-05-06 01:06 | -28.49977 | 122.33931 | 35421 ft | 455 kts | 66° |
| 2026-05-06 01:06 | -28.47479 | 122.40575 | 35422 ft | 457 kts | 66° |
| 2026-05-06 01:07 | -28.44990 | 122.47185 | 35420 ft | 457 kts | 66° |
| 2026-05-06 01:07 | -28.42483 | 122.53836 | 35421 ft | 457 kts | 66° |
| 2026-05-06 01:08 | -28.39977 | 122.60467 | 35424 ft | 456 kts | 66° |
| 2026-05-06 01:08 | -28.37478 | 122.67072 | 35421 ft | 458 kts | 66° |
| 2026-05-06 01:09 | -28.34961 | 122.73712 | 35419 ft | 458 kts | 66° |
| 2026-05-06 01:09 | -28.32436 | 122.80358 | 35419 ft | 457 kts | 66° |
| 2026-05-06 01:10 | -28.29925 | 122.86956 | 35417 ft | 457 kts | 66° |
| 2026-05-06 01:10 | -28.27397 | 122.93600 | 35415 ft | 458 kts | 66° |
| 2026-05-06 01:11 | -28.24878 | 123.00198 | 35418 ft | 458 kts | 65° |
| 2026-05-06 01:11 | -28.22344 | 123.06818 | 35418 ft | 458 kts | 65° |
| 2026-05-06 01:12 | -28.19801 | 123.13461 | 35416 ft | 458 kts | 66° |
| 2026-05-06 01:12 | -28.17277 | 123.20052 | 35412 ft | 459 kts | 65° |
| 2026-05-06 01:13 | -28.14727 | 123.26701 | 35409 ft | 459 kts | 65° |
| 2026-05-06 01:13 | -28.12184 | 123.33311 | 35411 ft | 459 kts | 65° |
| 2026-05-06 01:14 | -28.08344 | 123.43278 | 35410 ft | 459 kts | 65° |
| 2026-05-06 01:14 | -28.05791 | 123.49873 | 35410 ft | 459 kts | 65° |
| 2026-05-06 01:15 | -28.03221 | 123.56503 | 35408 ft | 459 kts | 65° |
| 2026-05-06 01:15 | -28.00673 | 123.63090 | 35408 ft | 459 kts | 65° |
| 2026-05-06 01:16 | -27.98117 | 123.69722 | 35402 ft | 459 kts | 65° |
| 2026-05-06 01:16 | -27.95551 | 123.76297 | 35406 ft | 459 kts | 65° |
| 2026-05-06 01:17 | -27.92984 | 123.82906 | 35406 ft | 459 kts | 65° |
| 2026-05-06 01:17 | -27.90404 | 123.89513 | 35407 ft | 459 kts | 65° |
| 2026-05-06 01:18 | -27.87821 | 123.96125 | 35404 ft | 459 kts | 65° |
| 2026-05-06 01:18 | -27.85247 | 124.02688 | 35408 ft | 459 kts | 65° |
| 2026-05-06 01:19 | -27.82650 | 124.09296 | 35404 ft | 459 kts | 65° |
| 2026-05-06 01:19 | -27.80078 | 124.15847 | 35405 ft | 459 kts | 65° |
| 2026-05-06 01:20 | -27.77490 | 124.22460 | 35399 ft | 458 kts | 65° |
| 2026-05-06 01:20 | -27.74890 | 124.29042 | 35391 ft | 458 kts | 65° |
| 2026-05-06 01:21 | -27.72310 | 124.35584 | 35394 ft | 458 kts | 65° |
| 2026-05-06 01:21 | -27.69698 | 124.42164 | 35396 ft | 458 kts | 65° |
| 2026-05-06 01:22 | -27.67107 | 124.48706 | 35396 ft | 458 kts | 65° |
| 2026-05-06 01:22 | -27.64509 | 124.55272 | 35397 ft | 458 kts | 65° |
| 2026-05-06 01:23 | -27.61913 | 124.61811 | 35393 ft | 458 kts | 65° |
| 2026-05-06 01:23 | -27.59300 | 124.68365 | 35393 ft | 458 kts | 65° |
| 2026-05-06 01:24 | -27.56699 | 124.74877 | 35390 ft | 457 kts | 65° |
| 2026-05-06 01:24 | -27.54085 | 124.81429 | 35393 ft | 457 kts | 65° |
| 2026-05-06 01:25 | -27.51472 | 124.87961 | 35389 ft | 457 kts | 65° |
| 2026-05-06 01:25 | -27.48866 | 124.94459 | 35392 ft | 457 kts | 65° |
| 2026-05-06 01:26 | -27.46243 | 125.01012 | 35382 ft | 457 kts | 64° |
| 2026-05-06 01:26 | -27.43630 | 125.07490 | 35380 ft | 457 kts | 65° |
| 2026-05-06 01:27 | -27.41003 | 125.14028 | 35384 ft | 457 kts | 64° |
| 2026-05-06 01:27 | -27.38383 | 125.20506 | 35381 ft | 457 kts | 64° |
| 2026-05-06 01:28 | -27.35765 | 125.27036 | 35383 ft | 456 kts | 64° |
| 2026-05-06 01:28 | -27.33120 | 125.33554 | 35378 ft | 456 kts | 64° |
| 2026-05-06 01:29 | -27.30502 | 125.40012 | 35374 ft | 456 kts | 64° |
| 2026-05-06 01:29 | -27.27858 | 125.46525 | 35384 ft | 456 kts | 64° |
| 2026-05-06 01:30 | -27.25229 | 125.52996 | 35380 ft | 455 kts | 64° |
| 2026-05-06 01:30 | -27.22610 | 125.59442 | 35375 ft | 455 kts | 64° |
| 2026-05-06 01:31 | -27.19968 | 125.65903 | 35375 ft | 454 kts | 64° |
| 2026-05-06 01:31 | -27.17336 | 125.72332 | 35372 ft | 454 kts | 64° |
| 2026-05-06 01:32 | -27.14702 | 125.78790 | 35371 ft | 454 kts | 64° |
| 2026-05-06 01:32 | -27.12057 | 125.85240 | 35373 ft | 454 kts | 64° |
| 2026-05-06 01:33 | -27.09400 | 125.91691 | 35367 ft | 454 kts | 64° |
| 2026-05-06 01:33 | -27.06769 | 125.98101 | 35368 ft | 454 kts | 64° |
| 2026-05-06 01:34 | -27.04126 | 126.04551 | 35371 ft | 454 kts | 64° |
| 2026-05-06 01:34 | -27.01486 | 126.10952 | 35367 ft | 454 kts | 64° |
| 2026-05-06 01:35 | -26.98817 | 126.17391 | 35366 ft | 454 kts | 64° |
| 2026-05-06 01:35 | -26.96149 | 126.23824 | 35365 ft | 454 kts | 64° |
| 2026-05-06 01:36 | -26.93483 | 126.30241 | 35363 ft | 453 kts | 64° |
| 2026-05-06 01:36 | -26.90852 | 126.36607 | 35369 ft | 453 kts | 64° |
| 2026-05-06 01:37 | -26.88086 | 126.42956 | 35367 ft | 453 kts | 63° |
| 2026-05-06 01:37 | -26.85347 | 126.49329 | 35364 ft | 453 kts | 63° |
| 2026-05-06 01:38 | -26.82660 | 126.55672 | 35364 ft | 453 kts | 63° |
| 2026-05-06 01:38 | -26.79928 | 126.62156 | 35387 ft | 465 kts | 64° |
| 2026-05-06 01:39 | -26.77143 | 126.68800 | 35362 ft | 476 kts | 64° |
| 2026-05-06 01:39 | -26.74335 | 126.75499 | 35359 ft | 478 kts | 64° |
| 2026-05-06 01:40 | -26.71500 | 126.82255 | 35357 ft | 478 kts | 64° |
| 2026-05-06 01:40 | -26.68684 | 126.88954 | 35355 ft | 479 kts | 64° |
| 2026-05-06 01:41 | -26.65841 | 126.95707 | 35356 ft | 479 kts | 63° |
| 2026-05-06 01:41 | -26.63015 | 127.02411 | 35347 ft | 478 kts | 63° |
| 2026-05-06 01:42 | -26.61595 | 127.05773 | 35472 ft | 474 kts | 63° |
| 2026-05-06 01:42 | -26.60366 | 127.08686 | 35840 ft | 470 kts | 63° |
| 2026-05-06 01:42 | -26.58985 | 127.11951 | 36127 ft | 468 kts | 63° |
| 2026-05-06 01:42 | -26.57592 | 127.15243 | 36418 ft | 467 kts | 63° |
| 2026-05-06 01:43 | -26.56204 | 127.18523 | 36715 ft | 465 kts | 63° |
| 2026-05-06 01:43 | -26.54835 | 127.21753 | 37010 ft | 464 kts | 63° |
| 2026-05-06 01:43 | -26.53454 | 127.25009 | 37310 ft | 462 kts | 63° |
| 2026-05-06 01:43 | -26.52072 | 127.28265 | 37366 ft | 466 kts | 63° |
| 2026-05-06 01:44 | -26.49256 | 127.34890 | 37374 ft | 476 kts | 63° |
| 2026-05-06 01:44 | -26.46403 | 127.41600 | 37392 ft | 479 kts | 63° |
| 2026-05-06 01:45 | -26.43547 | 127.48302 | 37380 ft | 482 kts | 63° |
| 2026-05-06 01:45 | -26.40662 | 127.55064 | 37384 ft | 482 kts | 63° |
| 2026-05-06 01:46 | -26.37766 | 127.61839 | 37372 ft | 482 kts | 63° |
| 2026-05-06 01:46 | -26.34885 | 127.68562 | 37345 ft | 482 kts | 63° |
| 2026-05-06 01:47 | -26.31991 | 127.75314 | 37346 ft | 482 kts | 63° |
| 2026-05-06 01:47 | -26.29113 | 127.82026 | 37348 ft | 482 kts | 62° |
| 2026-05-06 01:48 | -26.26203 | 127.88789 | 37347 ft | 482 kts | 62° |
| 2026-05-06 01:48 | -26.23317 | 127.95486 | 37331 ft | 482 kts | 62° |
| 2026-05-06 01:49 | -26.20396 | 128.02258 | 37340 ft | 483 kts | 62° |
| 2026-05-06 01:49 | -26.17502 | 128.08966 | 37335 ft | 483 kts | 62° |
| 2026-05-06 01:50 | -26.14583 | 128.15706 | 37342 ft | 483 kts | 62° |
| 2026-05-06 01:50 | -26.11663 | 128.22457 | 37339 ft | 484 kts | 62° |
| 2026-05-06 01:51 | -26.08732 | 128.29211 | 37334 ft | 484 kts | 62° |
| 2026-05-06 01:51 | -26.05818 | 128.35911 | 37337 ft | 484 kts | 62° |
| 2026-05-06 01:52 | -26.02883 | 128.42652 | 37328 ft | 484 kts | 62° |
| 2026-05-06 01:52 | -25.99954 | 128.49352 | 37329 ft | 484 kts | 62° |
| 2026-05-06 01:53 | -25.96986 | 128.56072 | 37324 ft | 484 kts | 62° |
| 2026-05-06 01:53 | -25.94038 | 128.62763 | 37326 ft | 484 kts | 62° |
| 2026-05-06 01:54 | -25.91073 | 128.69497 | 37326 ft | 485 kts | 62° |
| 2026-05-06 01:54 | -25.88103 | 128.76238 | 37323 ft | 485 kts | 62° |
| 2026-05-06 01:55 | -25.85142 | 128.82951 | 37323 ft | 485 kts | 62° |
| 2026-05-06 01:55 | -25.82170 | 128.89680 | 37319 ft | 485 kts | 62° |
| 2026-05-06 01:56 | -25.79189 | 128.96417 | 37322 ft | 486 kts | 62° |
| 2026-05-06 01:56 | -25.76219 | 129.03120 | 37321 ft | 486 kts | 62° |
| 2026-05-06 01:57 | -25.73222 | 129.09874 | 37320 ft | 486 kts | 62° |
| 2026-05-06 01:57 | -25.70233 | 129.16566 | 37314 ft | 486 kts | 58° |
| 2026-05-06 01:58 | -25.66318 | 129.22611 | 37338 ft | 479 kts | 43° |
| 2026-05-06 01:58 | -25.61317 | 129.27330 | 37337 ft | 475 kts | 31° |
| 2026-05-06 01:59 | -25.58864 | 129.29835 | 37327 ft | 484 kts | 50° |
| 2026-05-06 01:59 | -25.57142 | 129.33076 | 37365 ft | 491 kts | 63° |
| 2026-05-06 01:59 | -25.54371 | 129.39979 | 37314 ft | 492 kts | 63° |
| 2026-05-06 02:00 | -25.51509 | 129.46873 | 37315 ft | 492 kts | 63° |
| 2026-05-06 02:00 | -25.48639 | 129.53709 | 37311 ft | 492 kts | 62° |
| 2026-05-06 02:01 | -25.45736 | 129.60581 | 37299 ft | 493 kts | 62° |
| 2026-05-06 02:01 | -25.42815 | 129.67468 | 37303 ft | 494 kts | 62° |
| 2026-05-06 02:02 | -25.39888 | 129.74354 | 37307 ft | 494 kts | 62° |
| 2026-05-06 02:02 | -25.36970 | 129.81202 | 37302 ft | 494 kts | 62° |
| 2026-05-06 02:03 | -25.34023 | 129.88107 | 37307 ft | 495 kts | 62° |
| 2026-05-06 02:03 | -25.31102 | 129.94938 | 37307 ft | 495 kts | 62° |
| 2026-05-06 02:04 | -25.28155 | 130.01822 | 37308 ft | 495 kts | 62° |
| 2026-05-06 02:04 | -25.25196 | 130.08719 | 37309 ft | 497 kts | 61° |
| 2026-05-06 02:05 | -25.22245 | 130.15591 | 37310 ft | 498 kts | 61° |
| 2026-05-06 02:05 | -25.19271 | 130.22507 | 37308 ft | 497 kts | 61° |
| 2026-05-06 02:06 | -25.16287 | 130.29432 | 37307 ft | 499 kts | 61° |
| 2026-05-06 02:06 | -25.13312 | 130.36326 | 37307 ft | 499 kts | 61° |
| 2026-05-06 02:07 | -25.10320 | 130.43251 | 37304 ft | 499 kts | 61° |
| 2026-05-06 02:07 | -25.07327 | 130.50168 | 37308 ft | 500 kts | 60° |
| 2026-05-06 02:08 | -25.04339 | 130.57060 | 37298 ft | 501 kts | 60° |
| 2026-05-06 02:08 | -25.01329 | 130.63994 | 37297 ft | 501 kts | 60° |
| 2026-05-06 02:09 | -24.98316 | 130.70929 | 37301 ft | 501 kts | 60° |
| 2026-05-06 02:09 | -24.95293 | 130.77868 | 37301 ft | 501 kts | 60° |
| 2026-05-06 02:10 | -24.92802 | 130.83583 | 37297 ft | 501 kts | 60° |
| 2026-05-06 02:10 | -24.89272 | 130.91665 | 37280 ft | 501 kts | 60° |
| 2026-05-06 02:11 | -24.86236 | 130.98610 | 37299 ft | 503 kts | 60° |
| 2026-05-06 02:11 | -24.83701 | 131.04408 | 37298 ft | 503 kts | 60° |
| 2026-05-06 02:12 | -24.80674 | 131.11309 | 37293 ft | 503 kts | 60° |
| 2026-05-06 02:12 | -24.77623 | 131.18264 | 37288 ft | 505 kts | 59° |
| 2026-05-06 02:13 | -24.74555 | 131.25218 | 37287 ft | 508 kts | 59° |
| 2026-05-06 02:13 | -24.71467 | 131.32236 | 37288 ft | 508 kts | 59° |
| 2026-05-06 02:14 | -24.68396 | 131.39212 | 37286 ft | 509 kts | 59° |
| 2026-05-06 02:14 | -24.65297 | 131.46215 | 37283 ft | 509 kts | 59° |
| 2026-05-06 02:15 | -24.62199 | 131.53217 | 37281 ft | 509 kts | 59° |
| 2026-05-06 02:15 | -24.59094 | 131.60215 | 37286 ft | 511 kts | 58° |
| 2026-05-06 02:16 | -24.55989 | 131.67210 | 37283 ft | 511 kts | 58° |
| 2026-05-06 02:16 | -24.52871 | 131.74237 | 37284 ft | 511 kts | 58° |
| 2026-05-06 02:17 | -24.49762 | 131.81221 | 37290 ft | 513 kts | 58° |
| 2026-05-06 02:17 | -24.46623 | 131.88278 | 37279 ft | 513 kts | 58° |
| 2026-05-06 02:18 | -24.43483 | 131.95324 | 37283 ft | 513 kts | 58° |
| 2026-05-06 02:18 | -24.40338 | 132.02355 | 37285 ft | 514 kts | 58° |
| 2026-05-06 02:19 | -24.37199 | 132.09370 | 36878 ft | 513 kts | 58° |
| 2026-05-06 02:19 | -24.35638 | 132.12865 | 36581 ft | 503 kts | 58° |
| 2026-05-06 02:19 | -24.34094 | 132.16328 | 35781 ft | 506 kts | 58° |
| 2026-05-06 02:20 | -24.31039 | 132.23180 | 34474 ft | 499 kts | 58° |
| 2026-05-06 02:20 | -24.29514 | 132.26588 | 33746 ft | 496 kts | 58° |
| 2026-05-06 02:20 | -24.28008 | 132.29964 | 33154 ft | 490 kts | 59° |
| 2026-05-06 02:21 | -24.26510 | 132.33308 | 32483 ft | 485 kts | 59° |
| 2026-05-06 02:21 | -24.25027 | 132.36616 | 31843 ft | 481 kts | 60° |
| 2026-05-06 02:21 | -24.23573 | 132.39859 | 31232 ft | 477 kts | 60° |
| 2026-05-06 02:21 | -24.22108 | 132.43117 | 30592 ft | 475 kts | 61° |
| 2026-05-06 02:22 | -24.20653 | 132.46359 | 29924 ft | 473 kts | 61° |
| 2026-05-06 02:22 | -24.19204 | 132.49588 | 29348 ft | 472 kts | 61° |
| 2026-05-06 02:22 | -24.17744 | 132.52834 | 28700 ft | 474 kts | 61° |
| 2026-05-06 02:22 | -24.16306 | 132.56026 | 28081 ft | 471 kts | 61° |
| 2026-05-06 02:23 | -24.14862 | 132.59235 | 27459 ft | 467 kts | 61° |
| 2026-05-06 02:23 | -24.13426 | 132.62425 | 26849 ft | 463 kts | 61° |
| 2026-05-06 02:23 | -24.11999 | 132.65579 | 26231 ft | 461 kts | 61° |
| 2026-05-06 02:23 | -24.10577 | 132.68719 | 25631 ft | 456 kts | 60° |
| 2026-05-06 02:24 | -24.09172 | 132.71818 | 25027 ft | 452 kts | 61° |
| 2026-05-06 02:24 | -24.07804 | 132.74845 | 24438 ft | 448 kts | 61° |
| 2026-05-06 02:24 | -24.06417 | 132.77898 | 23843 ft | 444 kts | 61° |
| 2026-05-06 02:24 | -24.05046 | 132.80915 | 23241 ft | 438 kts | 60° |
| 2026-05-06 02:25 | -24.03709 | 132.83854 | 22677 ft | 434 kts | 61° |
| 2026-05-06 02:25 | -24.02373 | 132.86800 | 22125 ft | 430 kts | 61° |
| 2026-05-06 02:25 | -24.01045 | 132.89723 | 21551 ft | 427 kts | 61° |
| 2026-05-06 02:25 | -23.99724 | 132.92624 | 20992 ft | 423 kts | 61° |
| 2026-05-06 02:26 | -23.98415 | 132.95500 | 20428 ft | 420 kts | 61° |
| 2026-05-06 02:26 | -23.97128 | 132.98315 | 19880 ft | 416 kts | 61° |
| 2026-05-06 02:26 | -23.95837 | 133.01140 | 19336 ft | 413 kts | 62° |
| 2026-05-06 02:26 | -23.94562 | 133.03941 | 18794 ft | 409 kts | 62° |
| 2026-05-06 02:27 | -23.93288 | 133.06718 | 18216 ft | 406 kts | 62° |
| 2026-05-06 02:27 | -23.92030 | 133.09464 | 17719 ft | 399 kts | 62° |
| 2026-05-06 02:27 | -23.90804 | 133.12140 | 17191 ft | 396 kts | 62° |
| 2026-05-06 02:27 | -23.89567 | 133.14821 | 16673 ft | 392 kts | 62° |
| 2026-05-06 02:28 | -23.88346 | 133.17481 | 16162 ft | 389 kts | 62° |
| 2026-05-06 02:28 | -23.87146 | 133.20119 | 15642 ft | 386 kts | 62° |
| 2026-05-06 02:28 | -23.85948 | 133.22734 | 15141 ft | 383 kts | 62° |
| 2026-05-06 02:28 | -23.84775 | 133.25269 | 14635 ft | 374 kts | 61° |
| 2026-05-06 02:29 | -23.83613 | 133.27776 | 14144 ft | 362 kts | 62° |
| 2026-05-06 02:29 | -23.82506 | 133.30148 | 13602 ft | 339 kts | 62° |
| 2026-05-06 02:29 | -23.81456 | 133.32392 | 13224 ft | 327 kts | 62° |
| 2026-05-06 02:29 | -23.80432 | 133.34605 | 12824 ft | 326 kts | 63° |
| 2026-05-06 02:30 | -23.79425 | 133.36784 | 12403 ft | 322 kts | 63° |
| 2026-05-06 02:30 | -23.78412 | 133.38963 | 11964 ft | 319 kts | 63° |
| 2026-05-06 02:30 | -23.77420 | 133.41110 | 11547 ft | 314 kts | 64° |
| 2026-05-06 02:30 | -23.76441 | 133.43228 | 11140 ft | 310 kts | 64° |
| 2026-05-06 02:31 | -23.75469 | 133.45324 | 10735 ft | 306 kts | 64° |
| 2026-05-06 02:31 | -23.74517 | 133.47379 | 9999 ft | 304 kts | 65° |
| 2026-05-06 02:31 | -23.73577 | 133.49393 | 9670 ft | 294 kts | 65° |
| 2026-05-06 02:31 | -23.72647 | 133.51383 | 9301 ft | 293 kts | 66° |
| 2026-05-06 02:32 | -23.71731 | 133.53371 | 8918 ft | 292 kts | 67° |
| 2026-05-06 02:32 | -23.70817 | 133.55332 | 8531 ft | 289 kts | 67° |
| 2026-05-06 02:32 | -23.69899 | 133.57273 | 8076 ft | 287 kts | 68° |
| 2026-05-06 02:32 | -23.69005 | 133.59192 | 7556 ft | 277 kts | 66° |
| 2026-05-06 02:33 | -23.68164 | 133.60994 | 7061 ft | 264 kts | 68° |
| 2026-05-06 02:33 | -23.67606 | 133.62180 | 6731 ft | 256 kts | 69° |
| 2026-05-06 02:33 | -23.67629 | 133.66219 | 5560 ft | 227 kts | 122° |
| 2026-05-06 02:34 | -23.68412 | 133.67634 | 5602 ft | 213 kts | 122° |
| 2026-05-06 02:34 | -23.69134 | 133.68995 | 5608 ft | 204 kts | 122° |
| 2026-05-06 02:34 | -23.69851 | 133.70324 | 5630 ft | 201 kts | 122° |
| 2026-05-06 02:34 | -23.70540 | 133.71606 | 5651 ft | 196 kts | 122° |
| 2026-05-06 02:35 | -23.71241 | 133.72897 | 5576 ft | 200 kts | 122° |
| 2026-05-06 02:35 | -23.71953 | 133.74201 | 5437 ft | 200 kts | 123° |
| 2026-05-06 02:35 | -23.72664 | 133.75499 | 4866 ft | 200 kts | 122° |
| 2026-05-06 02:35 | -23.73341 | 133.76797 | 4432 ft | 190 kts | 120° |
| 2026-05-06 02:36 | -23.73863 | 133.77782 | 4446 ft | 170 kts | 122° |
| 2026-05-06 02:36 | -23.74308 | 133.78569 | 4265 ft | 176 kts | 123° |
| 2026-05-06 02:36 | -23.74968 | 133.79716 | 3786 ft | 175 kts | 123° |
| 2026-05-06 02:36 | -23.75552 | 133.80803 | 3555 ft | 155 kts | 120° |
| 2026-05-06 02:37 | -23.76018 | 133.81774 | 3416 ft | 137 kts | 120° |
| 2026-05-06 02:37 | -23.76465 | 133.82675 | 3215 ft | 135 kts | 122° |
| 2026-05-06 02:37 | -23.76957 | 133.83514 | 3050 ft | 128 kts | 126° |
| 2026-05-06 02:37 | -23.77423 | 133.84341 | 2841 ft | 124 kts | 122° |
| 2026-05-06 02:38 | -23.77832 | 133.85164 | 2596 ft | 123 kts | 123° |
| 2026-05-06 02:38 | -23.78261 | 133.85959 | 2507 ft | 120 kts | 125° |
| 2026-05-06 02:38 | -23.78717 | 133.86769 | 2367 ft | 128 kts | 124° |
| 2026-05-06 02:38 | -23.79169 | 133.87612 | 2239 ft | 133 kts | 124° |
| 2026-05-06 02:39 | -23.79634 | 133.88470 | 2043 ft | 131 kts | 124° |
| 2026-05-06 02:39 | -23.80091 | 133.89317 | 1833 ft | 125 kts | 122° |
| 2026-05-06 02:39 | -23.80488 | 133.90060 | 1789 ft | 93 kts | 122° |
| 2026-05-06 02:39 | -23.80807 | 133.90646 | 1785 ft | 83 kts | 120° |
| 2026-05-06 02:40 | -23.81020 | 133.91049 | 1785 ft | 38 kts | 121° |
| 2026-05-06 02:40 | -23.81074 | 133.91139 | 1786 ft | 1 kts | 121° |
| 2026-05-06 02:40 | -23.81085 | 133.91166 | 1786 ft | 6 kts | 97° |
| 2026-05-06 02:40 | -23.81098 | 133.91184 | 1785 ft | 3 kts | 213° |
| 2026-05-06 02:41 | -23.81074 | 133.91134 | 1786 ft | 15 kts | 303° |
| 2026-05-06 02:41 | -23.81006 | 133.91011 | 1785 ft | 22 kts | 300° |
| 2026-05-06 02:41 | -23.80917 | 133.90847 | 1785 ft | 29 kts | 300° |
| 2026-05-06 02:41 | -23.80803 | 133.90636 | 1785 ft | 35 kts | 300° |
| 2026-05-06 02:42 | -23.80678 | 133.90404 | 1787 ft | 36 kts | 300° |
| 2026-05-06 02:42 | -23.80548 | 133.90167 | 1789 ft | 37 kts | 298° |
| 2026-05-06 02:42 | -23.80446 | 133.89973 | 1790 ft | 18 kts | 302° |
| 2026-05-06 02:42 | -23.80345 | 133.89990 | 1791 ft | 17 kts | 31° |
| 2026-05-06 02:43 | -23.80313 | 133.90011 | 1791 ft | 0 kts | 31° |
| 2026-05-06 02:43 | -23.80311 | 133.90012 | 1791 ft | 1 kts | 33° |
| 2026-05-06 02:43 | -23.80302 | 133.90035 | 1792 ft | 5 kts | 79° |
| 2026-05-06 02:43 | -23.80308 | 133.90078 | 1792 ft | 7 kts | 113° |
| 2026-05-06 02:44 | -23.80336 | 133.90125 | 1792 ft | 8 kts | 122° |
| 2026-05-06 02:44 | -23.80352 | 133.90183 | 1792 ft | 8 kts | 79° |
| 2026-05-06 02:44 | -23.80343 | 133.90212 | 1792 ft | 4 kts | 71° |
| 2026-05-06 02:44 | -23.80337 | 133.90230 | 1791 ft | 1 kts | 70° |
| 2026-05-06 02:45 | -23.80337 | 133.90231 | 1791 ft | 0 kts | 71° |